Marysville, Montana
Current Conditions -  °F | °C
As of 11:53 PM on Friday 28 Nov 2014 (Local Time) from KHLN Reporting Station
Overcast Overcast  
Wind Chill: 12°   Ceiling: 7500
Heat Index: 22°   Visibility: 10mi
Dew Point: 15°   Wind: 9mph
Humidity: 75%   Direction: 350°N
Pressure: 29.4"   Gusts: NA
Location:  46.75°N, 112.3°W
Report Text: KHLN 290653Z AUTO 35008KT 10SM BKN075 OVC090 M06/M09 A2940 RMK AO2 SLP989 T10561094 401331056
Loading
Personal Weather Stations






























Interactive Weather Map New forecast layout! Learn more

10-Day Weather Forecast

Advertisements
Track Severe Weather on mobile